Notice: A non well formed numeric value encountered in /services16/webpages/util/w/t/wt8r5xhl.myutilitysite.com/weatherstationew0157.net/public/weather28/wsFunctions.php on line 312

Warning: A non-numeric value encountered in /services16/webpages/util/w/t/wt8r5xhl.myutilitysite.com/weatherstationew0157.net/public/weather28/wsFunctions.php on line 312

Warning: A non-numeric value encountered in /services16/webpages/util/w/t/wt8r5xhl.myutilitysite.com/weatherstationew0157.net/public/weather28/wsFunctions.php on line 312

Warning: A non-numeric value encountered in /services16/webpages/util/w/t/wt8r5xhl.myutilitysite.com/weatherstationew0157.net/public/weather28/scriptsWL/tagsWL.php on line 167

Warning: A non-numeric value encountered in /services16/webpages/util/w/t/wt8r5xhl.myutilitysite.com/weatherstationew0157.net/public/weather28/scriptsWL/tagsWL.php on line 168

Notice: Undefined index: moonrise in /services16/webpages/util/w/t/wt8r5xhl.myutilitysite.com/weatherstationew0157.net/public/weather28/inc/astronomy.php on line 427

Notice: Undefined index: moonset in /services16/webpages/util/w/t/wt8r5xhl.myutilitysite.com/weatherstationew0157.net/public/weather28/inc/astronomy.php on line 428
Announcements


NOTE: If anyone would like their zip code added to the Forecasts page please use the contact page and send me your town and zip code.
NOTE: You can customize the way the weather site looks, and select your favorite weather forecast by clicking the "Customize" button on the menu. And then "Save Your Changes"

Nearby METAR Reports

   
KMMU - Bloomingdale, New Jersey 07403
Updated: Jul 5 2020 5:35 am
Overcast  
Overcast  
   Wind: SSE 3.5 mph
Wind: SSE 3.5 mph
Temperature: 71.6°F
Dew Point: 68°F
Humidity: 88%
Barometer: 29.94 inHg
Clouds: Overcast
Visibility: 7 mi
Cloud details: Overcast 213 m
KMMU 050935Z AUTO 15003KT 7SM OVC007 22/20 A2994 RMK AO2
KTEB - Clifton, New Jersey 07014
Updated: Jul 5 2020 5:33 am
Mist, Mostly Cloudy  
Mist, Mostly Cloudy  
   Wind: South 6.9 mph
Wind: South 6.9 mph
Temperature: 71.6°F
Dew Point: 68°F
Humidity: 88%
Barometer: 29.93 inHg
Clouds: Mostly Cloudy
Visibility: 7 mi
Cloud details: Mostly Cloudy 427 m
KTEB 050933Z 19006KT 7SM BR BKN014 22/20 A2993 RMK AO2 T02220200 $
KFWN - Franklin, New Jersey 07416
Updated: Jul 5 2020 5:34 am
Mist, Clear  
Mist, Clear  
   Wind: Calm
Wind: Calm
Temperature: 64.4°F
Dew Point: 62.6°F
Humidity: 94%
Barometer: 29.95 inHg
Clouds: Clear
Visibility: 2 mi
Cloud details: Clear m
KFWN 050934Z AUTO 00000KT 2SM BR CLR 18/17 A2995 RMK AO2 T01780167
KFWN - Hamburg, New Jersey 07419
Updated: Jul 5 2020 5:34 am
Mist, Clear  
Mist, Clear  
   Wind: Calm
Wind: Calm
Temperature: 64.4°F
Dew Point: 62.6°F
Humidity: 94%
Barometer: 29.95 inHg
Clouds: Clear
Visibility: 2 mi
Cloud details: Clear m
KFWN 050934Z AUTO 00000KT 2SM BR CLR 18/17 A2995 RMK AO2 T01780167
KFWN - Highland Lakes, New Jersey 07422
Updated: Jul 5 2020 5:34 am
Mist, Clear  
Mist, Clear  
   Wind: Calm
Wind: Calm
Temperature: 64.4°F
Dew Point: 62.6°F
Humidity: 94%
Barometer: 29.95 inHg
Clouds: Clear
Visibility: 2 mi
Cloud details: Clear m
KFWN 050934Z AUTO 00000KT 2SM BR CLR 18/17 A2995 RMK AO2 T01780167
KMMU - Hopatcong,New Jersey 07849
Updated: Jul 5 2020 5:35 am
Overcast  
Overcast  
   Wind: SSE 3.5 mph
Wind: SSE 3.5 mph
Temperature: 71.6°F
Dew Point: 68°F
Humidity: 88%
Barometer: 29.94 inHg
Clouds: Overcast
Visibility: 7 mi
Cloud details: Overcast 213 m
KMMU 050935Z AUTO 15003KT 7SM OVC007 22/20 A2994 RMK AO2
KFWN - Jefferson, New Jersey 07438
Updated: Jul 5 2020 5:34 am
Mist, Clear  
Mist, Clear  
   Wind: Calm
Wind: Calm
Temperature: 64.4°F
Dew Point: 62.6°F
Humidity: 94%
Barometer: 29.95 inHg
Clouds: Clear
Visibility: 2 mi
Cloud details: Clear m
KFWN 050934Z AUTO 00000KT 2SM BR CLR 18/17 A2995 RMK AO2 T01780167
KLDJ - Keansburg, New Jersey 07734
Updated: Jul 5 2020 5:35 am
Partly Cloudy  
Partly Cloudy  
   Wind: Calm
Wind: Calm
Temperature: 71.6°F
Dew Point: 66.2°F
Humidity: 83%
Barometer: 29.94 inHg
Clouds: Partly Cloudy
Visibility: 10 mi
Cloud details: Partly Cloudy 335 m,
Partly Cloudy 457 m
KLDJ 050935Z AUTO 00000KT 10SM SCT011 SCT015 22/19 A2994 RMK AO2 T02160192
KMJX - Lavallette, New Jersey 08735
Updated: Jul 5 2020 4:56 am
Mostly Cloudy  
Mostly Cloudy  
   Wind: Calm
Wind: Calm
Temperature: 66.2°F
Dew Point: 64.4°F
Humidity: 94%
Barometer: 29.97 inHg
Clouds: Mostly Cloudy
Visibility: 9 mi
Cloud details: Mostly Cloudy 1280 m,
Mostly Cloudy 2286 m,
Mostly Cloudy 3658 m
KMJX 050856Z AUTO 00000KT 9SM BKN042 BKN075 BKN120 19/18 A2997 RMK AO2 LTG DSNT NE SLP152 T01940183 53005
KTEB - Little Ferry, New Jersey 07643
Updated: Jul 5 2020 5:33 am
Mist, Mostly Cloudy  
Mist, Mostly Cloudy  
   Wind: South 6.9 mph
Wind: South 6.9 mph
Temperature: 71.6°F
Dew Point: 68°F
Humidity: 88%
Barometer: 29.93 inHg
Clouds: Mostly Cloudy
Visibility: 7 mi
Cloud details: Mostly Cloudy 427 m
KTEB 050933Z 19006KT 7SM BR BKN014 22/20 A2993 RMK AO2 T02220200 $
KTEB - Spring Valley, NY 10977
Updated: Jul 5 2020 5:33 am
Mist, Mostly Cloudy  
Mist, Mostly Cloudy  
   Wind: South 6.9 mph
Wind: South 6.9 mph
Temperature: 71.6°F
Dew Point: 68°F
Humidity: 88%
Barometer: 29.93 inHg
Clouds: Mostly Cloudy
Visibility: 7 mi
Cloud details: Mostly Cloudy 427 m
KTEB 050933Z 19006KT 7SM BR BKN014 22/20 A2993 RMK AO2 T02220200 $
KEWR - Newark, New Jersey 07104
Updated: Jul 5 2020 5:15 am
Mostly Cloudy  
Mostly Cloudy  
   Wind: South 10.4 mph
Wind: South 10.4 mph
Temperature: 71.6°F
Dew Point: 66.2°F
Humidity: 83%
Barometer: 29.93 inHg
Clouds: Mostly Cloudy
Visibility: 10 mi
Cloud details: Mostly Cloudy 427 m,
Mostly Cloudy 1067 m,
Mostly Cloudy 2743 m,
Mostly Cloudy 7620 m
KEWR 050915Z 18009KT 10SM BKN014 BKN035 BKN090 BKN250 22/19 A2993 RMK AO2 T02220194
KMMU - Newfoundland, New Jersey 07435
Updated: Jul 5 2020 5:35 am
Overcast  
Overcast  
   Wind: SSE 3.5 mph
Wind: SSE 3.5 mph
Temperature: 71.6°F
Dew Point: 68°F
Humidity: 88%
Barometer: 29.94 inHg
Clouds: Overcast
Visibility: 7 mi
Cloud details: Overcast 213 m
KMMU 050935Z AUTO 15003KT 7SM OVC007 22/20 A2994 RMK AO2
KLGA - Yonkers, New York 10710
Updated: Jul 5 2020 4:51 am
Partly Cloudy  
Partly Cloudy  
   Wind: South 8.1 mph
Wind: South 8.1 mph
Temperature: 75.2°F
Dew Point: 66.2°F
Humidity: 74%
Barometer: 29.93 inHg
Clouds: Partly Cloudy
Visibility: 10 mi
Cloud details: Few Clouds 2134 m,
Partly Cloudy 2743 m
KLGA 050851Z 19007KT 10SM FEW070 SCT090 24/19 A2993 RMK AO2 LTG DSNT S SLP134 T02390189 55001
 

Script developed by  Saratoga-weather.org Adapted for the template by  Weerstation Leuven

You find our weather info also at:

Weather Underground

Citizen Weather Observer Program (CWOP)

Equipment we use:

Weather-station
Davis Vantage Pro2

Weather-program
WeatherLink

Weather-server
DELL Optiplex 7020 Mini-Tower

Provider
Deluxe

Davis Vantage Pro2

WeatherLink

DELL Optiplex 7020 Mini-Tower

Deluxe

Weather Station EW0157 Visitors
Weather Station EW0157 Visitors